Share

Ahmadi, Kuwait

Kuwait International (OKBK) Elev 180 ft | 29.22 °N, 47.98 °E | Change Station

Current weather conditions updated 33 minutes ago

Clear
Clear
97 °F
Feels Like 97 °F
N
15
Wind Variable Wind from NNW
Sunrise 5:16 AM
Sunset 6:16 PM
Moon Waning Gibbous

Tomorrow is forecast to be Cooler than today.

Pressure 29.77 in
Visibility -9999.0 miles
Clouds
Dew Point 45 °F
Humidity 17%
Rainfall 0.00 in
Snow Depth Not available.
UV Not available.
Pollen Not available.
Air Quality Not available.
Flu Activity Not available.
METAR OKBK 201500Z 34013KT CAVOK 36/07 Q1008 NOSIG

More Conditions Fewer Conditions

Pressure 29.77 in
Visibility -9999.0 miles
Clouds
Dew Point 45 °F
Humidity 17%
Rainfall 0.00 in
Snow Depth Not available.
UV Not available.
Pollen Not available.
Air Quality Not available.
Flu Activity Not available.
METAR OKBK 201500Z 34013KT CAVOK 36/07 Q1008 NOSIG

More Conditions Fewer Conditions

10-Day Weather Forecast

Almanac

Astronomy

Apr. 20, 2014 Rise Set
Actual Time 5:16 AM AST 6:16 PM AST
Civil Twilight 4:52 AM AST 6:41 PM AST
Nautical Twilight 4:23 AM AST 7:10 PM AST
Astronomical Twilight 3:53 AM AST 7:40 PM AST
Moon 11:20 PM AST 9:22 AM AST
Length of Visible Light 13h 48m
Length of Day
12h 59m
Tomorrow will be 1m 37s longer.
Waning Gibbous, 69% of the Moon is Illuminated
Today
Waning Gibbous
Apr 22
Last Quarter
Apr 29
New
May 6
First Quarter
May 14
Full

Today's Extremes

Country Highs Country Lows

Community

  • Easter Sunrise
    Easter Sunrise
  • Easter Eve - The Promise - Lake Palestine, TX
    Easter Eve - The Promise - Lake Palestine, TX
  • Happy Easter
    Happy Easter
  • EARLY FOGGY MORNING
    EARLY FOGGY MORNING
  • Easter Greetings
    Easter Greetings

WunderPhotos

Upload Photos

1,703,258 photos uploaded!

Nearby

Snow Depth

Not available.

Coastal Water Temperatures

Place Temperature
No Stations Reporting

Earthquake Activity

City Distance Mag. Time & Date
No recent earthquake activity has been reported nearby.
Minimum magnitude displayed is 2.5.

Nearby Weather Stations

Station Location Temp. Heat Index Dew Point Humidity Wind Precip. Elev Updated Type
Julai'a, Kuwait City 88.2 °F 85 °F 43 °F 21% NNW  at  3.4 mph 0.00 in / hr 26 ft 6:33 PM AST Rapid Fire
Zahra, Zahra 94.7 °F 92 °F 50 °F 22% WNW  at  6.0 mph 0.00 in / hr 151 ft 6:22 PM AST Normal
Kuwait, Salmiya 86.5 °F 90 °F 68 °F 54% WNW  at  7.0 mph 0.00 in / hr 50 ft 5:59 PM AST Rapid Fire
Kuwait City 95.5 °F 92 °F 50 °F 21% SSW  at  7.0 mph 0.00 in / hr 66 ft 6:25 PM AST Normal
Abdullah Al-Salem Area, Abdullah Alsalem 95.2 °F 91 °F 47 °F 19% West  at  5.0 mph 0.00 in / hr 59 ft 6:30 PM AST Normal

Show More Stations Show Fewer Stations

What do you think?

We're not finished. Please let us know what you like, what you don't like, and what you are still missing.